sensor_id;sensor_type;location;lat;lon;timestamp;pressure;altitude;pressure_sealevel;temperature;humidity
38253;BME280;24785;52.372;20.672;2023-04-25T00:04:31;99450.34;;;7.79;100.00
38253;BME280;24785;52.372;20.672;2023-04-25T00:14:33;99440.72;;;7.44;100.00
38253;BME280;24785;52.372;20.672;2023-04-25T00:24:34;99425.25;;;7.46;100.00
38253;BME280;24785;52.372;20.672;2023-04-25T00:34:35;99418.28;;;7.50;100.00
38253;BME280;24785;52.372;20.672;2023-04-25T00:44:36;99428.91;;;7.55;100.00
38253;BME280;24785;52.372;20.672;2023-04-25T00:54:38;99410.16;;;7.70;100.00
38253;BME280;24785;52.372;20.672;2023-04-25T01:04:39;99404.88;;;7.65;100.00
38253;BME280;24785;52.372;20.672;2023-04-25T01:14:40;99418.91;;;7.37;100.00
38253;BME280;24785;52.372;20.672;2023-04-25T01:24:41;99419.78;;;7.27;100.00
38253;BME280;24785;52.372;20.672;2023-04-25T01:34:42;99406.22;;;7.23;100.00
38253;BME280;24785;52.372;20.672;2023-04-25T01:44:43;99404.50;;;7.38;100.00
38253;BME280;24785;52.372;20.672;2023-04-25T01:54:43;99393.25;;;7.46;100.00
38253;BME280;24785;52.372;20.672;2023-04-25T02:04:45;99379.94;;;7.80;100.00
38253;BME280;24785;52.372;20.672;2023-04-25T02:14:46;99361.09;;;8.24;100.00
38253;BME280;24785;52.372;20.672;2023-04-25T02:24:46;99353.34;;;8.51;100.00
38253;BME280;24785;52.372;20.672;2023-04-25T02:34:47;99336.47;;;8.56;100.00
38253;BME280;24785;52.372;20.672;2023-04-25T02:44:48;99325.44;;;8.63;100.00
38253;BME280;24785;52.372;20.672;2023-04-25T02:54:49;99319.16;;;8.91;100.00
38253;BME280;24785;52.372;20.672;2023-04-25T03:04:50;99306.84;;;9.46;100.00
38253;BME280;24785;52.372;20.672;2023-04-25T03:14:51;99316.81;;;9.73;100.00
38253;BME280;24785;52.372;20.672;2023-04-25T03:24:51;99325.34;;;9.89;100.00
38253;BME280;24785;52.372;20.672;2023-04-25T03:34:52;99339.50;;;10.22;100.00
38253;BME280;24785;52.372;20.672;2023-04-25T03:44:53;99384.66;;;10.56;100.00
38253;BME280;24785;52.372;20.672;2023-04-25T03:54:54;99409.56;;;10.57;100.00
38253;BME280;24785;52.372;20.672;2023-04-25T04:04:55;99426.22;;;10.54;100.00
38253;BME280;24785;52.372;20.672;2023-04-25T04:14:57;99433.47;;;10.53;100.00
38253;BME280;24785;52.372;20.672;2023-04-25T04:24:58;99448.59;;;10.30;100.00
38253;BME280;24785;52.372;20.672;2023-04-25T04:34:58;99454.53;;;10.27;100.00
38253;BME280;24785;52.372;20.672;2023-04-25T04:45:00;99450.72;;;10.15;100.00
38253;BME280;24785;52.372;20.672;2023-04-25T04:55:03;99459.22;;;10.03;100.00
38253;BME280;24785;52.372;20.672;2023-04-25T05:05:05;99425.31;;;9.79;100.00
38253;BME280;24785;52.372;20.672;2023-04-25T05:15:06;99410.03;;;9.66;100.00
38253;BME280;24785;52.372;20.672;2023-04-25T05:25:08;99413.56;;;9.62;100.00
38253;BME280;24785;52.372;20.672;2023-04-25T05:35:10;99401.16;;;9.52;100.00
38253;BME280;24785;52.372;20.672;2023-04-25T05:45:10;99421.75;;;9.33;100.00
38253;BME280;24785;52.372;20.672;2023-04-25T05:55:11;99435.34;;;9.36;100.00
38253;BME280;24785;52.372;20.672;2023-04-25T06:05:12;99449.06;;;9.30;100.00
38253;BME280;24785;52.372;20.672;2023-04-25T06:15:13;99458.16;;;9.10;100.00
38253;BME280;24785;52.372;20.672;2023-04-25T06:25:14;99462.34;;;9.16;100.00
38253;BME280;24785;52.372;20.672;2023-04-25T06:35:15;99486.56;;;9.25;100.00
38253;BME280;24785;52.372;20.672;2023-04-25T06:45:16;99488.06;;;9.31;100.00
38253;BME280;24785;52.372;20.672;2023-04-25T06:55:17;99528.38;;;9.15;100.00
38253;BME280;24785;52.372;20.672;2023-04-25T07:05:17;99536.09;;;8.93;100.00
38253;BME280;24785;52.372;20.672;2023-04-25T07:15:18;99547.50;;;9.04;100.00
38253;BME280;24785;52.372;20.672;2023-04-25T07:25:20;99561.81;;;9.13;100.00
38253;BME280;24785;52.372;20.672;2023-04-25T07:35:20;99561.13;;;9.02;100.00
38253;BME280;24785;52.372;20.672;2023-04-25T07:45:21;99573.31;;;9.13;100.00
38253;BME280;24785;52.372;20.672;2023-04-25T07:55:22;99571.03;;;9.50;100.00
38253;BME280;24785;52.372;20.672;2023-04-25T08:05:23;99579.25;;;9.53;100.00
38253;BME280;24785;52.372;20.672;2023-04-25T08:15:23;99582.09;;;9.38;100.00
38253;BME280;24785;52.372;20.672;2023-04-25T08:25:24;99580.00;;;9.35;100.00
38253;BME280;24785;52.372;20.672;2023-04-25T08:35:25;99594.44;;;9.58;100.00
38253;BME280;24785;52.372;20.672;2023-04-25T08:45:27;99585.78;;;9.66;100.00
38253;BME280;24785;52.372;20.672;2023-04-25T08:55:29;99608.66;;;10.15;100.00
38253;BME280;24785;52.372;20.672;2023-04-25T09:05:32;99613.69;;;10.72;100.00
38253;BME280;24785;52.372;20.672;2023-04-25T09:15:47;99629.50;;;10.36;100.00
38253;BME280;24785;52.372;20.672;2023-04-25T09:25:53;99637.97;;;10.62;100.00
38253;BME280;24785;52.372;20.672;2023-04-25T09:35:54;99641.41;;;10.82;100.00
38253;BME280;24785;52.372;20.672;2023-04-25T09:46:02;99652.91;;;10.50;100.00
38253;BME280;24785;52.372;20.672;2023-04-25T09:56:08;99652.53;;;10.37;100.00
38253;BME280;24785;52.372;20.672;2023-04-25T10:06:12;99663.34;;;11.16;100.00
38253;BME280;24785;52.372;20.672;2023-04-25T10:16:13;99673.03;;;10.98;100.00
38253;BME280;24785;52.372;20.672;2023-04-25T10:26:14;99681.88;;;10.80;97.02
38253;BME280;24785;52.372;20.672;2023-04-25T10:36:21;99685.94;;;10.78;98.42
38253;BME280;24785;52.372;20.672;2023-04-25T10:46:24;99681.41;;;11.11;93.19
38253;BME280;24785;52.372;20.672;2023-04-25T10:56:30;99682.25;;;10.92;95.84
38253;BME280;24785;52.372;20.672;2023-04-25T11:07:13;99673.00;;;10.66;92.05
38253;BME280;24785;52.372;20.672;2023-04-25T11:17:20;99673.75;;;10.53;91.99
38253;BME280;24785;52.372;20.672;2023-04-25T11:27:21;99678.81;;;10.54;87.94
38253;BME280;24785;52.372;20.672;2023-04-25T11:37:22;99682.56;;;10.72;87.30
38253;BME280;24785;52.372;20.672;2023-04-25T11:47:29;99684.56;;;10.05;92.26
38253;BME280;24785;52.372;20.672;2023-04-25T11:57:31;99687.28;;;10.24;91.68
38253;BME280;24785;52.372;20.672;2023-04-25T12:07:32;99678.97;;;10.44;93.52
38253;BME280;24785;52.372;20.672;2023-04-25T12:17:33;99681.25;;;10.69;97.68
38253;BME280;24785;52.372;20.672;2023-04-25T12:27:34;99672.22;;;10.65;96.24
38253;BME280;24785;52.372;20.672;2023-04-25T12:37:36;99671.50;;;10.60;97.96
38253;BME280;24785;52.372;20.672;2023-04-25T12:47:37;99674.25;;;10.55;100.00
38253;BME280;24785;52.372;20.672;2023-04-25T12:57:38;99666.59;;;10.99;100.00
38253;BME280;24785;52.372;20.672;2023-04-25T13:07:39;99656.75;;;10.76;100.00
38253;BME280;24785;52.372;20.672;2023-04-25T13:17:40;99662.03;;;11.14;98.64
38253;BME280;24785;52.372;20.672;2023-04-25T13:27:42;99649.41;;;10.68;100.00
38253;BME280;24785;52.372;20.672;2023-04-25T13:37:44;99648.34;;;11.15;95.89
38253;BME280;24785;52.372;20.672;2023-04-25T13:47:45;99647.19;;;11.62;98.54
38253;BME280;24785;52.372;20.672;2023-04-25T13:57:46;99663.94;;;11.13;100.00
38253;BME280;24785;52.372;20.672;2023-04-25T14:07:47;99652.66;;;10.65;100.00
38253;BME280;24785;52.372;20.672;2023-04-25T14:17:49;99660.00;;;10.40;100.00
38253;BME280;24785;52.372;20.672;2023-04-25T14:27:50;99658.06;;;10.46;100.00
38253;BME280;24785;52.372;20.672;2023-04-25T14:37:50;99659.84;;;10.51;98.60
38253;BME280;24785;52.372;20.672;2023-04-25T14:47:51;99657.47;;;10.49;95.48
38253;BME280;24785;52.372;20.672;2023-04-25T14:57:53;99668.16;;;10.30;100.00
38253;BME280;24785;52.372;20.672;2023-04-25T15:07:54;99678.88;;;9.88;100.00
38253;BME280;24785;52.372;20.672;2023-04-25T15:17:55;99676.63;;;9.52;100.00
38253;BME280;24785;52.372;20.672;2023-04-25T15:27:56;99679.44;;;9.37;100.00
38253;BME280;24785;52.372;20.672;2023-04-25T15:37:57;99690.50;;;8.96;100.00
38253;BME280;24785;52.372;20.672;2023-04-25T15:47:58;99683.66;;;8.85;100.00
38253;BME280;24785;52.372;20.672;2023-04-25T15:57:59;99681.38;;;8.68;100.00
38253;BME280;24785;52.372;20.672;2023-04-25T16:08:00;99697.09;;;8.31;100.00
38253;BME280;24785;52.372;20.672;2023-04-25T16:18:02;99699.81;;;8.20;100.00
38253;BME280;24785;52.372;20.672;2023-04-25T16:28:03;99696.44;;;8.05;100.00
38253;BME280;24785;52.372;20.672;2023-04-25T16:38:04;99706.03;;;8.06;100.00
38253;BME280;24785;52.372;20.672;2023-04-25T16:48:05;99714.03;;;8.01;100.00
38253;BME280;24785;52.372;20.672;2023-04-25T16:58:05;99720.47;;;7.89;100.00
38253;BME280;24785;52.372;20.672;2023-04-25T17:08:07;99722.06;;;7.96;100.00
38253;BME280;24785;52.372;20.672;2023-04-25T17:18:08;99742.84;;;7.99;100.00
38253;BME280;24785;52.372;20.672;2023-04-25T17:28:08;99755.69;;;7.92;100.00
38253;BME280;24785;52.372;20.672;2023-04-25T17:38:09;99756.78;;;7.85;100.00
38253;BME280;24785;52.372;20.672;2023-04-25T17:48:10;99760.25;;;7.81;100.00
38253;BME280;24785;52.372;20.672;2023-04-25T17:58:11;99766.66;;;7.85;100.00
38253;BME280;24785;52.372;20.672;2023-04-25T18:08:12;99767.19;;;7.82;100.00
38253;BME280;24785;52.372;20.672;2023-04-25T18:18:13;99790.66;;;7.85;100.00
38253;BME280;24785;52.372;20.672;2023-04-25T18:28:19;99787.25;;;7.64;100.00
38253;BME280;24785;52.372;20.672;2023-04-25T18:38:21;99803.22;;;7.69;100.00
38253;BME280;24785;52.372;20.672;2023-04-25T18:48:22;99799.22;;;7.56;100.00
38253;BME280;24785;52.372;20.672;2023-04-25T18:58:23;99806.97;;;7.73;100.00
38253;BME280;24785;52.372;20.672;2023-04-25T19:08:25;99818.16;;;7.65;100.00
38253;BME280;24785;52.372;20.672;2023-04-25T19:18:26;99819.25;;;7.64;100.00
38253;BME280;24785;52.372;20.672;2023-04-25T19:28:27;99820.56;;;7.62;100.00
38253;BME280;24785;52.372;20.672;2023-04-25T19:38:30;99820.28;;;7.78;100.00
38253;BME280;24785;52.372;20.672;2023-04-25T19:48:31;99829.34;;;7.77;100.00
38253;BME280;24785;52.372;20.672;2023-04-25T19:58:31;99818.69;;;7.72;100.00
38253;BME280;24785;52.372;20.672;2023-04-25T20:08:34;99823.78;;;7.69;100.00
38253;BME280;24785;52.372;20.672;2023-04-25T20:18:35;99826.69;;;7.67;100.00
38253;BME280;24785;52.372;20.672;2023-04-25T20:28:37;99827.75;;;7.71;100.00
38253;BME280;24785;52.372;20.672;2023-04-25T20:38:38;99824.31;;;7.66;100.00
38253;BME280;24785;52.372;20.672;2023-04-25T20:48:39;99823.78;;;7.64;100.00
38253;BME280;24785;52.372;20.672;2023-04-25T20:58:39;99830.19;;;7.57;100.00
38253;BME280;24785;52.372;20.672;2023-04-25T21:08:41;99820.56;;;7.46;100.00
38253;BME280;24785;52.372;20.672;2023-04-25T21:18:42;99824.03;;;7.42;100.00
38253;BME280;24785;52.372;20.672;2023-04-25T21:28:42;99806.44;;;7.25;100.00
38253;BME280;24785;52.372;20.672;2023-04-25T21:38:43;99813.38;;;7.26;100.00
38253;BME280;24785;52.372;20.672;2023-04-25T21:48:44;99814.44;;;7.10;100.00
38253;BME280;24785;52.372;20.672;2023-04-25T21:58:45;99816.28;;;7.00;100.00
38253;BME280;24785;52.372;20.672;2023-04-25T22:08:46;99837.03;;;6.82;100.00
38253;BME280;24785;52.372;20.672;2023-04-25T22:18:47;99840.75;;;6.86;100.00
38253;BME280;24785;52.372;20.672;2023-04-25T22:28:48;99831.44;;;6.89;100.00
38253;BME280;24785;52.372;20.672;2023-04-25T22:38:50;99840.50;;;6.88;100.00
38253;BME280;24785;52.372;20.672;2023-04-25T22:48:52;99854.97;;;6.45;100.00
38253;BME280;24785;52.372;20.672;2023-04-25T22:58:53;99877.56;;;6.37;100.00
38253;BME280;24785;52.372;20.672;2023-04-25T23:08:54;99890.06;;;6.37;100.00
38253;BME280;24785;52.372;20.672;2023-04-25T23:18:55;99904.47;;;6.41;100.00
38253;BME280;24785;52.372;20.672;2023-04-25T23:28:55;99916.16;;;6.35;100.00
38253;BME280;24785;52.372;20.672;2023-04-25T23:38:56;99928.63;;;6.29;100.00
38253;BME280;24785;52.372;20.672;2023-04-25T23:48:57;99940.75;;;6.15;100.00
38253;BME280;24785;52.372;20.672;2023-04-25T23:58:58;99950.25;;;6.06;100.00
